sensor_id;sensor_type;location;lat;lon;timestamp;P1;durP1;ratioP1;P2;durP2;ratioP2
32475;SDS011;18929;48.008;10.882;2022-12-07T00:01:27;41.50;;;20.52;;
32475;SDS011;18929;48.008;10.882;2022-12-07T00:03:56;38.45;;;18.67;;
32475;SDS011;18929;48.008;10.882;2022-12-07T00:06:29;39.97;;;18.75;;
32475;SDS011;18929;48.008;10.882;2022-12-07T00:08:57;34.83;;;19.65;;
32475;SDS011;18929;48.008;10.882;2022-12-07T00:11:24;38.92;;;19.38;;
32475;SDS011;18929;48.008;10.882;2022-12-07T00:13:53;39.38;;;20.00;;
32475;SDS011;18929;48.008;10.882;2022-12-07T00:16:22;39.97;;;20.40;;
32475;SDS011;18929;48.008;10.882;2022-12-07T00:18:51;37.58;;;19.40;;
32475;SDS011;18929;48.008;10.882;2022-12-07T00:21:19;39.80;;;20.55;;
32475;SDS011;18929;48.008;10.882;2022-12-07T00:23:48;46.28;;;21.83;;
32475;SDS011;18929;48.008;10.882;2022-12-07T00:26:16;45.67;;;21.55;;
32475;SDS011;18929;48.008;10.882;2022-12-07T00:28:46;55.08;;;25.13;;
32475;SDS011;18929;48.008;10.882;2022-12-07T00:31:16;36.15;;;19.58;;
32475;SDS011;18929;48.008;10.882;2022-12-07T00:33:44;37.35;;;19.50;;
32475;SDS011;18929;48.008;10.882;2022-12-07T00:36:13;41.30;;;19.75;;
32475;SDS011;18929;48.008;10.882;2022-12-07T00:38:41;40.30;;;20.42;;
32475;SDS011;18929;48.008;10.882;2022-12-07T00:41:09;38.08;;;19.83;;
32475;SDS011;18929;48.008;10.882;2022-12-07T00:43:37;44.28;;;22.83;;
32475;SDS011;18929;48.008;10.882;2022-12-07T00:46:05;46.67;;;22.85;;
32475;SDS011;18929;48.008;10.882;2022-12-07T00:48:33;36.92;;;19.55;;
32475;SDS011;18929;48.008;10.882;2022-12-07T00:51:00;41.33;;;19.80;;
32475;SDS011;18929;48.008;10.882;2022-12-07T00:53:28;44.35;;;20.40;;
32475;SDS011;18929;48.008;10.882;2022-12-07T00:55:55;48.70;;;23.10;;
32475;SDS011;18929;48.008;10.882;2022-12-07T00:58:22;47.28;;;21.63;;
32475;SDS011;18929;48.008;10.882;2022-12-07T01:00:49;38.75;;;18.70;;
32475;SDS011;18929;48.008;10.882;2022-12-07T01:03:17;33.15;;;18.17;;
32475;SDS011;18929;48.008;10.882;2022-12-07T01:05:52;35.35;;;18.75;;
32475;SDS011;18929;48.008;10.882;2022-12-07T01:08:21;32.72;;;17.33;;
32475;SDS011;18929;48.008;10.882;2022-12-07T01:10:48;36.05;;;18.77;;
32475;SDS011;18929;48.008;10.882;2022-12-07T01:13:15;33.60;;;17.35;;
32475;SDS011;18929;48.008;10.882;2022-12-07T01:15:43;57.70;;;24.83;;
32475;SDS011;18929;48.008;10.882;2022-12-07T01:18:10;49.45;;;21.60;;
32475;SDS011;18929;48.008;10.882;2022-12-07T01:20:38;35.38;;;17.73;;
32475;SDS011;18929;48.008;10.882;2022-12-07T01:23:06;39.08;;;18.25;;
32475;SDS011;18929;48.008;10.882;2022-12-07T01:25:33;33.88;;;17.00;;
32475;SDS011;18929;48.008;10.882;2022-12-07T01:28:00;31.48;;;17.58;;
32475;SDS011;18929;48.008;10.882;2022-12-07T01:30:27;35.50;;;17.58;;
32475;SDS011;18929;48.008;10.882;2022-12-07T01:32:54;37.78;;;18.70;;
32475;SDS011;18929;48.008;10.882;2022-12-07T01:35:21;36.72;;;18.70;;
32475;SDS011;18929;48.008;10.882;2022-12-07T01:37:48;39.78;;;19.33;;
32475;SDS011;18929;48.008;10.882;2022-12-07T01:40:17;42.67;;;18.77;;
32475;SDS011;18929;48.008;10.882;2022-12-07T01:42:44;44.08;;;19.13;;
32475;SDS011;18929;48.008;10.882;2022-12-07T01:45:31;38.65;;;18.17;;
32475;SDS011;18929;48.008;10.882;2022-12-07T01:48:04;40.92;;;17.67;;
32475;SDS011;18929;48.008;10.882;2022-12-07T01:50:33;46.33;;;21.27;;
32475;SDS011;18929;48.008;10.882;2022-12-07T01:53:01;45.20;;;18.92;;
32475;SDS011;18929;48.008;10.882;2022-12-07T01:55:34;43.42;;;18.17;;
32475;SDS011;18929;48.008;10.882;2022-12-07T01:58:05;40.97;;;18.23;;
32475;SDS011;18929;48.008;10.882;2022-12-07T02:00:32;40.47;;;18.80;;
32475;SDS011;18929;48.008;10.882;2022-12-07T02:03:01;38.60;;;17.30;;
32475;SDS011;18929;48.008;10.882;2022-12-07T02:05:32;40.00;;;19.00;;
32475;SDS011;18929;48.008;10.882;2022-12-07T02:08:01;37.38;;;17.67;;
32475;SDS011;18929;48.008;10.882;2022-12-07T02:10:30;37.47;;;18.17;;
32475;SDS011;18929;48.008;10.882;2022-12-07T02:13:00;42.65;;;19.25;;
32475;SDS011;18929;48.008;10.882;2022-12-07T02:15:33;40.55;;;18.65;;
32475;SDS011;18929;48.008;10.882;2022-12-07T02:18:09;40.53;;;18.92;;
32475;SDS011;18929;48.008;10.882;2022-12-07T02:20:43;38.35;;;18.20;;
32475;SDS011;18929;48.008;10.882;2022-12-07T02:26:34;37.95;;;18.42;;
32475;SDS011;18929;48.008;10.882;2022-12-07T02:29:30;36.38;;;17.15;;
32475;SDS011;18929;48.008;10.882;2022-12-07T02:32:03;34.03;;;17.27;;
32475;SDS011;18929;48.008;10.882;2022-12-07T02:34:39;36.53;;;18.13;;
32475;SDS011;18929;48.008;10.882;2022-12-07T02:37:12;34.45;;;18.30;;
32475;SDS011;18929;48.008;10.882;2022-12-07T02:39:48;29.50;;;14.57;;
32475;SDS011;18929;48.008;10.882;2022-12-07T02:42:21;35.22;;;17.48;;
32475;SDS011;18929;48.008;10.882;2022-12-07T02:44:53;39.63;;;17.80;;
32475;SDS011;18929;48.008;10.882;2022-12-07T02:47:20;38.22;;;18.00;;
32475;SDS011;18929;48.008;10.882;2022-12-07T02:49:49;33.33;;;16.88;;
32475;SDS011;18929;48.008;10.882;2022-12-07T02:52:17;33.75;;;16.30;;
32475;SDS011;18929;48.008;10.882;2022-12-07T02:54:44;33.10;;;17.08;;
32475;SDS011;18929;48.008;10.882;2022-12-07T02:57:17;33.60;;;16.83;;
32475;SDS011;18929;48.008;10.882;2022-12-07T03:00:07;30.58;;;15.95;;
32475;SDS011;18929;48.008;10.882;2022-12-07T03:02:38;32.38;;;15.85;;
32475;SDS011;18929;48.008;10.882;2022-12-07T03:05:21;26.63;;;14.45;;
32475;SDS011;18929;48.008;10.882;2022-12-07T03:08:11;30.05;;;15.57;;
32475;SDS011;18929;48.008;10.882;2022-12-07T03:10:43;29.40;;;14.98;;
32475;SDS011;18929;48.008;10.882;2022-12-07T03:13:20;24.02;;;13.80;;
32475;SDS011;18929;48.008;10.882;2022-12-07T03:15:53;28.33;;;15.98;;
32475;SDS011;18929;48.008;10.882;2022-12-07T03:18:24;25.90;;;14.88;;
32475;SDS011;18929;48.008;10.882;2022-12-07T03:20:55;30.88;;;15.65;;
32475;SDS011;18929;48.008;10.882;2022-12-07T03:23:26;29.67;;;15.77;;
32475;SDS011;18929;48.008;10.882;2022-12-07T03:25:55;28.13;;;15.25;;
32475;SDS011;18929;48.008;10.882;2022-12-07T03:28:27;26.20;;;14.77;;
32475;SDS011;18929;48.008;10.882;2022-12-07T03:31:00;26.88;;;15.38;;
32475;SDS011;18929;48.008;10.882;2022-12-07T03:33:30;25.65;;;14.15;;
32475;SDS011;18929;48.008;10.882;2022-12-07T03:36:01;24.25;;;13.40;;
32475;SDS011;18929;48.008;10.882;2022-12-07T03:41:04;20.27;;;12.48;;
32475;SDS011;18929;48.008;10.882;2022-12-07T03:43:34;22.08;;;13.60;;
32475;SDS011;18929;48.008;10.882;2022-12-07T03:46:06;23.00;;;14.18;;
32475;SDS011;18929;48.008;10.882;2022-12-07T03:48:38;22.52;;;13.48;;
32475;SDS011;18929;48.008;10.882;2022-12-07T03:51:12;23.05;;;12.90;;
32475;SDS011;18929;48.008;10.882;2022-12-07T03:53:46;18.10;;;11.68;;
32475;SDS011;18929;48.008;10.882;2022-12-07T03:56:17;24.40;;;13.60;;
32475;SDS011;18929;48.008;10.882;2022-12-07T03:58:45;19.85;;;12.65;;
32475;SDS011;18929;48.008;10.882;2022-12-07T04:01:14;22.00;;;13.00;;
32475;SDS011;18929;48.008;10.882;2022-12-07T04:03:43;19.50;;;12.45;;
32475;SDS011;18929;48.008;10.882;2022-12-07T04:06:10;20.83;;;12.82;;
32475;SDS011;18929;48.008;10.882;2022-12-07T04:08:38;22.05;;;13.95;;
32475;SDS011;18929;48.008;10.882;2022-12-07T04:11:05;21.30;;;12.98;;
32475;SDS011;18929;48.008;10.882;2022-12-07T04:13:32;19.35;;;13.40;;
32475;SDS011;18929;48.008;10.882;2022-12-07T04:16:20;20.85;;;12.73;;
32475;SDS011;18929;48.008;10.882;2022-12-07T04:18:47;22.38;;;13.68;;
32475;SDS011;18929;48.008;10.882;2022-12-07T04:21:14;23.90;;;14.75;;
32475;SDS011;18929;48.008;10.882;2022-12-07T04:23:41;21.23;;;12.60;;
32475;SDS011;18929;48.008;10.882;2022-12-07T04:26:08;19.95;;;10.90;;
32475;SDS011;18929;48.008;10.882;2022-12-07T04:28:35;28.33;;;18.05;;
32475;SDS011;18929;48.008;10.882;2022-12-07T04:31:02;38.53;;;23.83;;
32475;SDS011;18929;48.008;10.882;2022-12-07T04:33:31;27.08;;;15.07;;
32475;SDS011;18929;48.008;10.882;2022-12-07T04:35:58;25.20;;;14.73;;
32475;SDS011;18929;48.008;10.882;2022-12-07T04:38:25;25.40;;;17.40;;
32475;SDS011;18929;48.008;10.882;2022-12-07T04:40:52;23.80;;;15.35;;
32475;SDS011;18929;48.008;10.882;2022-12-07T04:43:18;23.15;;;15.35;;
32475;SDS011;18929;48.008;10.882;2022-12-07T04:45:46;22.00;;;14.95;;
32475;SDS011;18929;48.008;10.882;2022-12-07T04:48:13;23.23;;;13.88;;
32475;SDS011;18929;48.008;10.882;2022-12-07T04:50:42;23.90;;;15.82;;
32475;SDS011;18929;48.008;10.882;2022-12-07T04:53:09;25.60;;;14.82;;
32475;SDS011;18929;48.008;10.882;2022-12-07T04:55:36;23.80;;;14.93;;
32475;SDS011;18929;48.008;10.882;2022-12-07T04:58:03;20.90;;;14.02;;
32475;SDS011;18929;48.008;10.882;2022-12-07T05:00:30;23.25;;;14.65;;
32475;SDS011;18929;48.008;10.882;2022-12-07T05:02:57;23.55;;;15.68;;
32475;SDS011;18929;48.008;10.882;2022-12-07T05:05:26;24.95;;;16.38;;
32475;SDS011;18929;48.008;10.882;2022-12-07T05:07:54;31.95;;;20.75;;
32475;SDS011;18929;48.008;10.882;2022-12-07T05:10:21;23.17;;;15.55;;
32475;SDS011;18929;48.008;10.882;2022-12-07T05:12:49;22.58;;;15.57;;
32475;SDS011;18929;48.008;10.882;2022-12-07T05:15:16;28.17;;;18.35;;
32475;SDS011;18929;48.008;10.882;2022-12-07T05:17:43;39.45;;;24.42;;
32475;SDS011;18929;48.008;10.882;2022-12-07T05:20:11;26.63;;;18.05;;
32475;SDS011;18929;48.008;10.882;2022-12-07T05:22:38;25.52;;;17.35;;
32475;SDS011;18929;48.008;10.882;2022-12-07T05:25:07;26.90;;;17.70;;
32475;SDS011;18929;48.008;10.882;2022-12-07T05:27:34;25.70;;;17.48;;
32475;SDS011;18929;48.008;10.882;2022-12-07T05:30:02;27.75;;;18.33;;
32475;SDS011;18929;48.008;10.882;2022-12-07T05:32:29;25.15;;;17.02;;
32475;SDS011;18929;48.008;10.882;2022-12-07T05:34:56;24.63;;;16.52;;
32475;SDS011;18929;48.008;10.882;2022-12-07T05:37:23;26.05;;;17.00;;
32475;SDS011;18929;48.008;10.882;2022-12-07T05:39:50;24.45;;;16.45;;
32475;SDS011;18929;48.008;10.882;2022-12-07T05:45:20;24.95;;;17.05;;
32475;SDS011;18929;48.008;10.882;2022-12-07T05:47:47;26.73;;;16.73;;
32475;SDS011;18929;48.008;10.882;2022-12-07T05:50:14;26.67;;;18.33;;
32475;SDS011;18929;48.008;10.882;2022-12-07T05:52:41;26.20;;;17.27;;
32475;SDS011;18929;48.008;10.882;2022-12-07T05:55:08;25.48;;;16.70;;
32475;SDS011;18929;48.008;10.882;2022-12-07T05:57:35;29.17;;;18.40;;
32475;SDS011;18929;48.008;10.882;2022-12-07T06:00:04;27.20;;;17.40;;
32475;SDS011;18929;48.008;10.882;2022-12-07T06:02:31;25.75;;;17.17;;
32475;SDS011;18929;48.008;10.882;2022-12-07T06:04:58;26.67;;;17.90;;
32475;SDS011;18929;48.008;10.882;2022-12-07T06:07:25;25.95;;;17.05;;
32475;SDS011;18929;48.008;10.882;2022-12-07T06:09:52;25.85;;;16.70;;
32475;SDS011;18929;48.008;10.882;2022-12-07T06:12:19;25.85;;;17.48;;
32475;SDS011;18929;48.008;10.882;2022-12-07T06:15:07;29.67;;;17.35;;
32475;SDS011;18929;48.008;10.882;2022-12-07T06:17:40;26.38;;;17.70;;
32475;SDS011;18929;48.008;10.882;2022-12-07T06:20:07;28.95;;;17.92;;
32475;SDS011;18929;48.008;10.882;2022-12-07T06:22:34;26.90;;;18.23;;
32475;SDS011;18929;48.008;10.882;2022-12-07T06:25:03;36.70;;;25.48;;
32475;SDS011;18929;48.008;10.882;2022-12-07T06:27:30;36.55;;;24.85;;
32475;SDS011;18929;48.008;10.882;2022-12-07T06:29:58;35.40;;;24.83;;
32475;SDS011;18929;48.008;10.882;2022-12-07T06:32:32;38.80;;;25.50;;
32475;SDS011;18929;48.008;10.882;2022-12-07T06:34:59;35.72;;;24.42;;
32475;SDS011;18929;48.008;10.882;2022-12-07T06:37:26;41.22;;;25.52;;
32475;SDS011;18929;48.008;10.882;2022-12-07T06:39:53;36.00;;;24.90;;
32475;SDS011;18929;48.008;10.882;2022-12-07T06:42:20;36.03;;;23.67;;
32475;SDS011;18929;48.008;10.882;2022-12-07T06:44:47;35.65;;;23.88;;
32475;SDS011;18929;48.008;10.882;2022-12-07T06:47:14;36.42;;;22.30;;
32475;SDS011;18929;48.008;10.882;2022-12-07T06:49:42;36.80;;;23.60;;
32475;SDS011;18929;48.008;10.882;2022-12-07T06:52:09;40.40;;;24.70;;
32475;SDS011;18929;48.008;10.882;2022-12-07T06:54:36;36.53;;;23.88;;
32475;SDS011;18929;48.008;10.882;2022-12-07T06:57:03;35.10;;;23.77;;
32475;SDS011;18929;48.008;10.882;2022-12-07T06:59:30;37.65;;;24.00;;
32475;SDS011;18929;48.008;10.882;2022-12-07T07:01:57;35.90;;;23.63;;
32475;SDS011;18929;48.008;10.882;2022-12-07T07:04:24;39.03;;;23.58;;
32475;SDS011;18929;48.008;10.882;2022-12-07T07:06:53;36.30;;;23.05;;
32475;SDS011;18929;48.008;10.882;2022-12-07T07:09:19;35.20;;;21.98;;
32475;SDS011;18929;48.008;10.882;2022-12-07T07:11:47;37.72;;;22.15;;
32475;SDS011;18929;48.008;10.882;2022-12-07T07:14:14;35.05;;;22.92;;
32475;SDS011;18929;48.008;10.882;2022-12-07T07:16:44;39.00;;;23.20;;
32475;SDS011;18929;48.008;10.882;2022-12-07T07:19:11;35.28;;;22.08;;
32475;SDS011;18929;48.008;10.882;2022-12-07T07:21:38;35.58;;;21.67;;
32475;SDS011;18929;48.008;10.882;2022-12-07T07:24:07;36.30;;;22.58;;
32475;SDS011;18929;48.008;10.882;2022-12-07T07:26:34;36.28;;;22.27;;
32475;SDS011;18929;48.008;10.882;2022-12-07T07:29:01;37.10;;;22.73;;
32475;SDS011;18929;48.008;10.882;2022-12-07T07:31:28;38.08;;;22.80;;
32475;SDS011;18929;48.008;10.882;2022-12-07T07:33:55;34.85;;;22.42;;
32475;SDS011;18929;48.008;10.882;2022-12-07T07:36:22;32.97;;;21.58;;
32475;SDS011;18929;48.008;10.882;2022-12-07T07:38:49;36.88;;;22.05;;
32475;SDS011;18929;48.008;10.882;2022-12-07T07:41:20;36.67;;;22.33;;
32475;SDS011;18929;48.008;10.882;2022-12-07T07:43:51;36.05;;;22.67;;
32475;SDS011;18929;48.008;10.882;2022-12-07T07:46:18;39.95;;;23.65;;
32475;SDS011;18929;48.008;10.882;2022-12-07T07:48:45;41.97;;;23.17;;
32475;SDS011;18929;48.008;10.882;2022-12-07T07:51:12;39.17;;;23.25;;
32475;SDS011;18929;48.008;10.882;2022-12-07T07:53:39;37.72;;;23.20;;
32475;SDS011;18929;48.008;10.882;2022-12-07T07:56:06;39.10;;;23.73;;
32475;SDS011;18929;48.008;10.882;2022-12-07T07:58:35;40.63;;;23.55;;
32475;SDS011;18929;48.008;10.882;2022-12-07T08:01:04;40.38;;;23.63;;
32475;SDS011;18929;48.008;10.882;2022-12-07T08:03:31;39.92;;;24.10;;
32475;SDS011;18929;48.008;10.882;2022-12-07T08:05:58;38.28;;;23.40;;
32475;SDS011;18929;48.008;10.882;2022-12-07T08:08:26;34.92;;;21.10;;
32475;SDS011;18929;48.008;10.882;2022-12-07T08:13:40;40.45;;;23.30;;
32475;SDS011;18929;48.008;10.882;2022-12-07T08:16:08;41.55;;;22.90;;
32475;SDS011;18929;48.008;10.882;2022-12-07T08:18:37;42.92;;;24.02;;
32475;SDS011;18929;48.008;10.882;2022-12-07T08:21:06;44.15;;;25.05;;
32475;SDS011;18929;48.008;10.882;2022-12-07T08:23:36;43.28;;;25.63;;
32475;SDS011;18929;48.008;10.882;2022-12-07T08:26:03;46.60;;;25.58;;
32475;SDS011;18929;48.008;10.882;2022-12-07T08:28:32;40.80;;;24.10;;
32475;SDS011;18929;48.008;10.882;2022-12-07T08:31:01;40.15;;;23.85;;
32475;SDS011;18929;48.008;10.882;2022-12-07T08:33:29;48.47;;;26.50;;
32475;SDS011;18929;48.008;10.882;2022-12-07T08:35:59;42.13;;;24.23;;
32475;SDS011;18929;48.008;10.882;2022-12-07T08:38:27;41.65;;;24.88;;
32475;SDS011;18929;48.008;10.882;2022-12-07T08:40:54;44.55;;;24.77;;
32475;SDS011;18929;48.008;10.882;2022-12-07T08:43:21;43.45;;;25.50;;
32475;SDS011;18929;48.008;10.882;2022-12-07T08:45:49;42.92;;;24.77;;
32475;SDS011;18929;48.008;10.882;2022-12-07T08:48:22;44.50;;;26.05;;
32475;SDS011;18929;48.008;10.882;2022-12-07T08:50:50;43.83;;;25.40;;
32475;SDS011;18929;48.008;10.882;2022-12-07T08:53:18;44.33;;;25.50;;
32475;SDS011;18929;48.008;10.882;2022-12-07T08:55:46;40.65;;;24.58;;
32475;SDS011;18929;48.008;10.882;2022-12-07T08:58:14;44.42;;;24.92;;
32475;SDS011;18929;48.008;10.882;2022-12-07T09:00:41;42.22;;;24.23;;
32475;SDS011;18929;48.008;10.882;2022-12-07T09:03:08;45.40;;;26.17;;
32475;SDS011;18929;48.008;10.882;2022-12-07T09:05:37;45.20;;;25.50;;
32475;SDS011;18929;48.008;10.882;2022-12-07T09:08:05;45.78;;;26.15;;
32475;SDS011;18929;48.008;10.882;2022-12-07T09:10:33;42.90;;;23.48;;
32475;SDS011;18929;48.008;10.882;2022-12-07T09:13:00;42.78;;;23.30;;
32475;SDS011;18929;48.008;10.882;2022-12-07T09:15:27;46.15;;;25.75;;
32475;SDS011;18929;48.008;10.882;2022-12-07T09:17:54;45.15;;;25.20;;
32475;SDS011;18929;48.008;10.882;2022-12-07T09:20:22;43.20;;;25.20;;
32475;SDS011;18929;48.008;10.882;2022-12-07T09:22:50;45.03;;;25.52;;
32475;SDS011;18929;48.008;10.882;2022-12-07T09:25:17;42.53;;;24.27;;
32475;SDS011;18929;48.008;10.882;2022-12-07T09:27:44;43.95;;;24.10;;
32475;SDS011;18929;48.008;10.882;2022-12-07T09:30:11;42.20;;;23.90;;
32475;SDS011;18929;48.008;10.882;2022-12-07T09:32:39;41.95;;;24.67;;
32475;SDS011;18929;48.008;10.882;2022-12-07T09:35:06;42.83;;;25.15;;
32475;SDS011;18929;48.008;10.882;2022-12-07T09:37:33;41.50;;;24.88;;
32475;SDS011;18929;48.008;10.882;2022-12-07T09:40:03;40.28;;;22.73;;
32475;SDS011;18929;48.008;10.882;2022-12-07T09:42:32;39.15;;;23.42;;
32475;SDS011;18929;48.008;10.882;2022-12-07T09:45:02;39.08;;;21.88;;
32475;SDS011;18929;48.008;10.882;2022-12-07T09:47:31;37.88;;;23.00;;
32475;SDS011;18929;48.008;10.882;2022-12-07T09:50:02;41.58;;;24.15;;
32475;SDS011;18929;48.008;10.882;2022-12-07T09:52:31;39.85;;;20.63;;
32475;SDS011;18929;48.008;10.882;2022-12-07T09:54:58;41.67;;;27.10;;
32475;SDS011;18929;48.008;10.882;2022-12-07T09:57:29;40.17;;;22.45;;
32475;SDS011;18929;48.008;10.882;2022-12-07T10:00:00;40.25;;;23.35;;
32475;SDS011;18929;48.008;10.882;2022-12-07T10:02:34;36.10;;;21.25;;
32475;SDS011;18929;48.008;10.882;2022-12-07T10:05:04;35.22;;;21.17;;
32475;SDS011;18929;48.008;10.882;2022-12-07T10:07:33;37.15;;;22.00;;
32475;SDS011;18929;48.008;10.882;2022-12-07T10:10:01;39.20;;;23.23;;
32475;SDS011;18929;48.008;10.882;2022-12-07T10:12:31;37.90;;;20.77;;
32475;SDS011;18929;48.008;10.882;2022-12-07T10:15:22;37.50;;;20.80;;
32475;SDS011;18929;48.008;10.882;2022-12-07T10:17:49;39.92;;;21.42;;
32475;SDS011;18929;48.008;10.882;2022-12-07T10:20:19;36.80;;;20.55;;
32475;SDS011;18929;48.008;10.882;2022-12-07T10:22:56;33.58;;;20.83;;
32475;SDS011;18929;48.008;10.882;2022-12-07T10:25:26;38.42;;;21.17;;
32475;SDS011;18929;48.008;10.882;2022-12-07T10:27:59;33.97;;;19.08;;
32475;SDS011;18929;48.008;10.882;2022-12-07T10:30:28;34.92;;;20.52;;
32475;SDS011;18929;48.008;10.882;2022-12-07T10:32:57;35.30;;;19.88;;
32475;SDS011;18929;48.008;10.882;2022-12-07T10:35:25;34.10;;;20.52;;
32475;SDS011;18929;48.008;10.882;2022-12-07T10:37:54;37.10;;;20.73;;
32475;SDS011;18929;48.008;10.882;2022-12-07T10:40:28;35.78;;;21.13;;
32475;SDS011;18929;48.008;10.882;2022-12-07T10:43:01;37.40;;;20.65;;
32475;SDS011;18929;48.008;10.882;2022-12-07T10:45:30;31.55;;;18.20;;
32475;SDS011;18929;48.008;10.882;2022-12-07T10:47:59;32.65;;;18.83;;
32475;SDS011;18929;48.008;10.882;2022-12-07T10:50:38;30.58;;;18.42;;
32475;SDS011;18929;48.008;10.882;2022-12-07T10:53:20;24.45;;;15.82;;
32475;SDS011;18929;48.008;10.882;2022-12-07T10:58:59;30.10;;;16.83;;
32475;SDS011;18929;48.008;10.882;2022-12-07T11:01:38;33.10;;;19.55;;
32475;SDS011;18929;48.008;10.882;2022-12-07T11:04:21;27.98;;;17.27;;
32475;SDS011;18929;48.008;10.882;2022-12-07T11:06:57;27.30;;;16.95;;
32475;SDS011;18929;48.008;10.882;2022-12-07T11:09:40;28.48;;;15.70;;
32475;SDS011;18929;48.008;10.882;2022-12-07T11:12:20;31.15;;;18.10;;
32475;SDS011;18929;48.008;10.882;2022-12-07T11:15:00;33.33;;;18.48;;
32475;SDS011;18929;48.008;10.882;2022-12-07T11:17:34;29.23;;;17.05;;
32475;SDS011;18929;48.008;10.882;2022-12-07T11:20:13;31.05;;;17.83;;
32475;SDS011;18929;48.008;10.882;2022-12-07T11:22:51;29.02;;;17.92;;
32475;SDS011;18929;48.008;10.882;2022-12-07T11:25:26;29.90;;;17.80;;
32475;SDS011;18929;48.008;10.882;2022-12-07T11:28:04;23.67;;;15.45;;
32475;SDS011;18929;48.008;10.882;2022-12-07T11:30:46;27.65;;;16.17;;
32475;SDS011;18929;48.008;10.882;2022-12-07T11:33:26;28.90;;;17.20;;
32475;SDS011;18929;48.008;10.882;2022-12-07T11:36:02;25.40;;;15.63;;
32475;SDS011;18929;48.008;10.882;2022-12-07T11:38:41;19.75;;;11.23;;
32475;SDS011;18929;48.008;10.882;2022-12-07T11:46:24;22.92;;;12.63;;
32475;SDS011;18929;48.008;10.882;2022-12-07T11:48:55;24.50;;;14.38;;
32475;SDS011;18929;48.008;10.882;2022-12-07T11:51:28;15.25;;;9.07;;
32475;SDS011;18929;48.008;10.882;2022-12-07T11:54:01;21.33;;;12.35;;
32475;SDS011;18929;48.008;10.882;2022-12-07T11:56:29;19.23;;;11.70;;
32475;SDS011;18929;48.008;10.882;2022-12-07T11:59:02;24.08;;;14.43;;
32475;SDS011;18929;48.008;10.882;2022-12-07T12:01:41;23.33;;;13.15;;
32475;SDS011;18929;48.008;10.882;2022-12-07T12:04:22;19.85;;;9.13;;
32475;SDS011;18929;48.008;10.882;2022-12-07T12:06:56;19.50;;;11.13;;
32475;SDS011;18929;48.008;10.882;2022-12-07T12:09:25;14.23;;;8.80;;
32475;SDS011;18929;48.008;10.882;2022-12-07T12:12:06;15.95;;;9.82;;
32475;SDS011;18929;48.008;10.882;2022-12-07T12:14:46;18.08;;;10.50;;
32475;SDS011;18929;48.008;10.882;2022-12-07T12:17:28;12.85;;;7.45;;
32475;SDS011;18929;48.008;10.882;2022-12-07T12:20:22;11.57;;;7.13;;
32475;SDS011;18929;48.008;10.882;2022-12-07T12:22:53;16.98;;;9.98;;
32475;SDS011;18929;48.008;10.882;2022-12-07T12:25:25;14.93;;;9.53;;
32475;SDS011;18929;48.008;10.882;2022-12-07T12:27:55;17.38;;;10.35;;
32475;SDS011;18929;48.008;10.882;2022-12-07T12:30:25;18.63;;;11.25;;
32475;SDS011;18929;48.008;10.882;2022-12-07T12:33:13;11.15;;;7.47;;
32475;SDS011;18929;48.008;10.882;2022-12-07T12:38:50;15.98;;;10.00;;
32475;SDS011;18929;48.008;10.882;2022-12-07T12:41:52;13.70;;;8.48;;
32475;SDS011;18929;48.008;10.882;2022-12-07T12:44:40;15.55;;;8.52;;
32475;SDS011;18929;48.008;10.882;2022-12-07T12:47:38;16.50;;;10.00;;
32475;SDS011;18929;48.008;10.882;2022-12-07T12:50:21;16.40;;;9.90;;
32475;SDS011;18929;48.008;10.882;2022-12-07T12:53:03;13.93;;;9.13;;
32475;SDS011;18929;48.008;10.882;2022-12-07T12:58:49;13.88;;;8.95;;
32475;SDS011;18929;48.008;10.882;2022-12-07T13:01:39;16.40;;;9.57;;
32475;SDS011;18929;48.008;10.882;2022-12-07T13:07:11;14.38;;;9.18;;
32475;SDS011;18929;48.008;10.882;2022-12-07T13:09:59;13.88;;;8.98;;
32475;SDS011;18929;48.008;10.882;2022-12-07T13:12:27;16.33;;;10.23;;
32475;SDS011;18929;48.008;10.882;2022-12-07T13:14:56;15.73;;;9.07;;
32475;SDS011;18929;48.008;10.882;2022-12-07T13:23:12;15.30;;;9.43;;
32475;SDS011;18929;48.008;10.882;2022-12-07T13:25:49;13.27;;;8.82;;
32475;SDS011;18929;48.008;10.882;2022-12-07T13:28:21;18.92;;;11.13;;
32475;SDS011;18929;48.008;10.882;2022-12-07T13:31:00;17.58;;;10.63;;
32475;SDS011;18929;48.008;10.882;2022-12-07T13:33:50;19.58;;;11.15;;
32475;SDS011;18929;48.008;10.882;2022-12-07T13:36:19;15.52;;;9.52;;
32475;SDS011;18929;48.008;10.882;2022-12-07T13:38:50;30.20;;;11.07;;
32475;SDS011;18929;48.008;10.882;2022-12-07T13:41:19;29.45;;;11.55;;
32475;SDS011;18929;48.008;10.882;2022-12-07T13:43:49;15.73;;;9.35;;
32475;SDS011;18929;48.008;10.882;2022-12-07T13:46:19;26.30;;;10.35;;
32475;SDS011;18929;48.008;10.882;2022-12-07T13:48:52;25.40;;;11.23;;
32475;SDS011;18929;48.008;10.882;2022-12-07T13:51:21;16.38;;;10.05;;
32475;SDS011;18929;48.008;10.882;2022-12-07T13:53:52;25.48;;;11.15;;
32475;SDS011;18929;48.008;10.882;2022-12-07T13:56:21;17.02;;;9.68;;
32475;SDS011;18929;48.008;10.882;2022-12-07T13:58:52;19.75;;;11.00;;
32475;SDS011;18929;48.008;10.882;2022-12-07T14:01:19;31.15;;;13.15;;
32475;SDS011;18929;48.008;10.882;2022-12-07T14:03:46;23.50;;;11.73;;
32475;SDS011;18929;48.008;10.882;2022-12-07T14:06:23;18.50;;;10.90;;
32475;SDS011;18929;48.008;10.882;2022-12-07T14:09:07;22.55;;;11.75;;
32475;SDS011;18929;48.008;10.882;2022-12-07T14:11:35;25.02;;;12.18;;
32475;SDS011;18929;48.008;10.882;2022-12-07T14:14:04;24.58;;;11.45;;
32475;SDS011;18929;48.008;10.882;2022-12-07T14:16:33;20.60;;;12.27;;
32475;SDS011;18929;48.008;10.882;2022-12-07T14:19:02;17.92;;;11.07;;
32475;SDS011;18929;48.008;10.882;2022-12-07T14:21:31;21.08;;;12.55;;
32475;SDS011;18929;48.008;10.882;2022-12-07T14:24:09;85.95;;;46.20;;
32475;SDS011;18929;48.008;10.882;2022-12-07T14:26:40;25.17;;;13.13;;
32475;SDS011;18929;48.008;10.882;2022-12-07T14:29:21;27.05;;;13.45;;
32475;SDS011;18929;48.008;10.882;2022-12-07T14:31:56;21.70;;;12.65;;
32475;SDS011;18929;48.008;10.882;2022-12-07T14:34:24;23.20;;;12.93;;
32475;SDS011;18929;48.008;10.882;2022-12-07T14:36:51;15.13;;;10.07;;
32475;SDS011;18929;48.008;10.882;2022-12-07T14:39:19;25.17;;;13.30;;
32475;SDS011;18929;48.008;10.882;2022-12-07T14:41:46;21.83;;;11.85;;
32475;SDS011;18929;48.008;10.882;2022-12-07T14:44:17;17.10;;;10.98;;
32475;SDS011;18929;48.008;10.882;2022-12-07T14:46:44;22.45;;;12.75;;
32475;SDS011;18929;48.008;10.882;2022-12-07T14:49:12;21.00;;;12.95;;
32475;SDS011;18929;48.008;10.882;2022-12-07T14:51:39;22.33;;;13.75;;
32475;SDS011;18929;48.008;10.882;2022-12-07T14:54:07;20.42;;;11.27;;
32475;SDS011;18929;48.008;10.882;2022-12-07T14:56:41;28.50;;;13.27;;
32475;SDS011;18929;48.008;10.882;2022-12-07T14:59:09;20.52;;;12.38;;
32475;SDS011;18929;48.008;10.882;2022-12-07T15:01:37;22.25;;;13.13;;
32475;SDS011;18929;48.008;10.882;2022-12-07T15:04:04;17.58;;;11.10;;